aviador You're here:

PADU Decoded Metar

UNALASKA in AK, USA
Report Time2018-05-21 19:56:00
UTC Time2018-05-21 20:35:35
Flight Rules mvfr MVFR
Wind330° at 22 Gusting to 28 kt
W.Decomp.*RWY 30: 21.1 kt HW 6.1 kt RCW
W.Rank330° ranks 1
Current wind is above 330° avg. (13.3)
Visibility9999 m
Phenomena:N/A
Clouds:Broken 023 Hf
Expected CloudBase > 1,600 ft AGL from Temp-Dew spread
Ceiling2,300 ft
Temp05°C (ISA -10)
Dew Point01°C (76% RH)
AAT-4.7°C
QNH1010 hPa
Density Alt-1,001 ft
Elevation13 ft
Report Wrong Elevation
Raw Report
PADU 211956Z 33022G28KT 10SM BKN023 05/01 A2983 RMK AO2 PK WND
33031/1942 RAE52 SLP105 BLK WTR NE-E MH P0000 T00500011=

Extra information for PADU:More info

Metar Taf Metar & Taf Last 4 Metars F.Rules Stats Wind Profile Meteogram Temp Stats Airport Information Weather charts Add Link Nearby VenuesMetar ALERT Operation Metar Decoded Social comments

AIRNAV info for PADU